Terminal Aerodrome Forecast
Issued by NWS Central Illinois

Home | Current Version | Previous Version | Text Only | Print | Product List | Glossary On
Versions: 1 2 3 4 5 6 7 8 9 10 11 12 13 14 15 16 17 18 19 20 21 22 23 24 25 26
000
FTUS43 KILX 301402 AAB
TAFSPI
TAF AMD
KSPI 301402Z 3014/3112 30005KT P6SM OVC003
      TEMPO 3014/3015 5SM HZ BKN010
     FM301500 30005KT P6SM BKN010
      TEMPO 3015/3017 SCT015 BKN025
     FM301700 30006KT P6SM SCT025 BKN035
     FM310900 VRB03KT 3SM BR SCT008=

USA.gov is the U.S. government's official web portal to all federal, state and local government web resources and services.